Trabzon International Airport
LTCG : now visible

Airfield :











YOU CAN JOIN US ON...

 
LOGIN :

Register | Disclaimer

   EN    FR    IT 

 









Legend :    VFR   Marginal VFR   IFR   Intensive IFR   Very Intensive IFR
Visi :
Ceiling :
>= 8 km
>= 3000ft
5 to 8 km
1000 to 3000 ft
1500m to 5 km
500 to 1000 ft
800 to 1500m
200 to 500 ft
< 800m
< 200 ft
Symbols :   Thunderstorms  Fog  Heavy snow  Heavy precipitations  Wind > 20 kt







- Airport Elevation : 104 ft
- IATA code : TZX


LTCG - Trabzon International

CURRENT METAR :
  • 182350Z 29015KT 8000 -SHRA BKN033 07/05 Q1022 NOSIG RMK RWY29 28015KT

EXPIRED METARs :
  • 182320Z 30019G30KT 6000 -SHRA BKN035 07/05 Q1021 NOSIG RMK RWY29 30024KT
  • 182250Z 30017KT 9999 BKN035 08/05 Q1021 NOSIG RMK RWY29 28016G26KT
  • 182220Z 28012KT 9999 BKN035 09/04 Q1020 NOSIG RMK RWY29 27010KT 230V290
  • 182150Z 29016KT 9999 BKN035 09/04 Q1020 RESHRA NOSIG RMK RWY29 29017KT
  • 182120Z 30014G24KT 9999 -SHRA BKN028 08/05 Q1020 NOSIG RMK RWY29 27014KT

TAF TAF LTCG
Valid from the 19 at 00:00 until the 20 at 00:00 UTC


182240Z 1900/1924 27012KT 8000 -SHRA BKN035
TEMPO 1900/1904 30018G28KT
PROB30 1908/1912 3500 BR BKN009 BKN025
BECMG 1912/1915 VRB02KT
TEMPO 1914/1918 SCT012 BKN028
No reported NOTAMs for that airfield.



MET'MAP, your aeronautical weather chart ! - Copyright ORBIFLY December 2007 - Disclaimer

ORBIFLY MET'MAP TEAM :

Programming & Development : Alexandra Zaïnal
Concept & Development : Baudouin d'Aumeries
Co-Development & Prog : Marc-Olivier Méhu
Technical & hardware support : Manuel Goepfert

Contact : metmap@orbifly.com




SOURCES & CREDITS :

   NOAA       Earth
Advisory